Austinville, Pennsylvania
Current Conditions -  °F | °C
As of 6:53 PM on Wednesday 26 Nov 2014 (Local Time) from KELM Reporting Station
Light Snow Light Snow  
Wind Chill: 27°   Ceiling: 3300
Heat Index: 32°   Visibility: 3mi
Dew Point: 29°   Wind: 5mph
Humidity: 88%   Direction: 30°NNE
Pressure: 30"   Gusts: NA
Location:  41.8495°N, 76.7925°W
Report Text: KELM 262353Z 03004KT 3SM -SN BR FEW013 FEW026 OVC033 00/M02 A3000 RMK AO2 SLP169 P0001 60013 T00001017 10006 20000 56005
Loading
Personal Weather Stations






























Interactive Weather Map New forecast layout! Learn more

10-Day Weather Forecast

Advertisements
Track Severe Weather on mobile